sensor_id;sensor_type;location;lat;lon;timestamp;pressure;altitude;pressure_sealevel;temperature;humidity
61906;BME280;47863;55.766;37.672;2024-01-15T00:00:28;97839.78;;;-8.55;95.13
61906;BME280;47863;55.766;37.672;2024-01-15T00:02:53;97835.53;;;-8.56;95.70
61906;BME280;47863;55.766;37.672;2024-01-15T00:05:19;97831.19;;;-8.56;95.22
61906;BME280;47863;55.766;37.672;2024-01-15T00:07:44;97831.91;;;-8.54;95.17
61906;BME280;47863;55.766;37.672;2024-01-15T00:10:10;97830.34;;;-8.56;94.94
61906;BME280;47863;55.766;37.672;2024-01-15T00:12:36;97826.72;;;-8.54;95.33
61906;BME280;47863;55.766;37.672;2024-01-15T00:15:01;97819.31;;;-8.60;95.54
61906;BME280;47863;55.766;37.672;2024-01-15T00:17:27;97810.84;;;-8.64;95.38
61906;BME280;47863;55.766;37.672;2024-01-15T00:19:53;97818.47;;;-8.61;95.03
61906;BME280;47863;55.766;37.672;2024-01-15T00:22:19;97817.31;;;-8.71;95.58
61906;BME280;47863;55.766;37.672;2024-01-15T00:24:45;97812.53;;;-8.63;95.09
61906;BME280;47863;55.766;37.672;2024-01-15T00:27:29;97817.16;;;-8.53;95.51
61906;BME280;47863;55.766;37.672;2024-01-15T00:29:55;97812.63;;;-8.50;95.19
61906;BME280;47863;55.766;37.672;2024-01-15T00:32:20;97804.28;;;-8.55;95.61
61906;BME280;47863;55.766;37.672;2024-01-15T00:35:05;97810.69;;;-8.46;95.25
61906;BME280;47863;55.766;37.672;2024-01-15T00:37:31;97810.69;;;-8.46;95.25
61906;BME280;47863;55.766;37.672;2024-01-15T00:39:57;97808.38;;;-8.51;95.58
61906;BME280;47863;55.766;37.672;2024-01-15T00:42:22;97818.50;;;-8.46;95.16
61906;BME280;47863;55.766;37.672;2024-01-15T00:44:48;97811.44;;;-8.44;95.28
61906;BME280;47863;55.766;37.672;2024-01-15T00:47:33;97803.72;;;-8.46;95.53
61906;BME280;47863;55.766;37.672;2024-01-15T00:49:58;97795.03;;;-8.45;96.13
61906;BME280;47863;55.766;37.672;2024-01-15T00:52:24;97691.41;;;-9.07;95.44
61906;BME280;47863;55.766;37.672;2024-01-15T00:54:50;97787.34;;;-8.46;95.39
61906;BME280;47863;55.766;37.672;2024-01-15T00:57:15;97791.28;;;-8.41;95.47
61906;BME280;47863;55.766;37.672;2024-01-15T00:59:41;97797.16;;;-8.37;95.74
61906;BME280;47863;55.766;37.672;2024-01-15T01:02:06;97773.69;;;-8.50;95.39
61906;BME280;47863;55.766;37.672;2024-01-15T01:04:32;97790.84;;;-8.33;95.35
61906;BME280;47863;55.766;37.672;2024-01-15T01:06:58;97785.28;;;-8.27;95.55
61906;BME280;47863;55.766;37.672;2024-01-15T01:09:24;97776.16;;;-8.34;95.58
61906;BME280;47863;55.766;37.672;2024-01-15T01:14:34;97780.06;;;-8.27;95.01
61906;BME280;47863;55.766;37.672;2024-01-15T01:17:00;97770.44;;;-8.25;94.77
61906;BME280;47863;55.766;37.672;2024-01-15T01:22:09;97746.47;;;-8.30;95.51
61906;BME280;47863;55.766;37.672;2024-01-15T01:24:35;97761.59;;;-8.22;95.74
61906;BME280;47863;55.766;37.672;2024-01-15T01:27:01;97760.56;;;-8.20;95.57
61906;BME280;47863;55.766;37.672;2024-01-15T01:29:26;97759.75;;;-8.20;95.91
61906;BME280;47863;55.766;37.672;2024-01-15T01:31:52;97755.38;;;-8.20;95.58
61906;BME280;47863;55.766;37.672;2024-01-15T01:34:18;97749.28;;;-8.19;95.22
61906;BME280;47863;55.766;37.672;2024-01-15T01:36:43;97750.09;;;-8.18;95.61
61906;BME280;47863;55.766;37.672;2024-01-15T01:39:09;97725.78;;;-8.31;95.32
61906;BME280;47863;55.766;37.672;2024-01-15T01:41:35;97746.47;;;-8.15;95.41
61906;BME280;47863;55.766;37.672;2024-01-15T01:44:01;97730.53;;;-8.24;95.94
61906;BME280;47863;55.766;37.672;2024-01-15T01:49:48;97736.06;;;-8.15;95.97
61906;BME280;47863;55.766;37.672;2024-01-15T01:52:13;97700.31;;;-8.39;95.52
61906;BME280;47863;55.766;37.672;2024-01-15T01:54:40;97732.66;;;-8.16;96.03
61906;BME280;47863;55.766;37.672;2024-01-15T01:57:06;97730.13;;;-8.03;95.60
61906;BME280;47863;55.766;37.672;2024-01-15T01:59:34;97697.78;;;-8.26;95.99
61906;BME280;47863;55.766;37.672;2024-01-15T02:02:02;97652.31;;;-8.46;96.04
61906;BME280;47863;55.766;37.672;2024-01-15T02:04:29;97707.97;;;-8.09;96.18
61906;BME280;47863;55.766;37.672;2024-01-15T02:06:56;97725.19;;;-7.93;96.10
61906;BME280;47863;55.766;37.672;2024-01-15T02:09:22;97734.56;;;-7.91;95.66
61906;BME280;47863;55.766;37.672;2024-01-15T02:11:47;97718.16;;;-7.91;95.99
61906;BME280;47863;55.766;37.672;2024-01-15T02:14:14;97722.13;;;-7.86;95.06
61906;BME280;47863;55.766;37.672;2024-01-15T02:16:40;97715.69;;;-7.80;96.26
61906;BME280;47863;55.766;37.672;2024-01-15T02:19:06;97722.47;;;-7.78;95.42
61906;BME280;47863;55.766;37.672;2024-01-15T02:21:32;97716.13;;;-7.73;95.40
61906;BME280;47863;55.766;37.672;2024-01-15T02:24:07;97717.53;;;-7.68;96.35
61906;BME280;47863;55.766;37.672;2024-01-15T02:26:33;97709.81;;;-7.69;95.77
61906;BME280;47863;55.766;37.672;2024-01-15T02:29:02;97719.06;;;-7.65;95.97
61906;BME280;47863;55.766;37.672;2024-01-15T02:31:27;97688.94;;;-7.82;96.13
61906;BME280;47863;55.766;37.672;2024-01-15T02:33:53;97716.91;;;-7.59;96.07
61906;BME280;47863;55.766;37.672;2024-01-15T02:36:18;97727.44;;;-7.60;96.21
61906;BME280;47863;55.766;37.672;2024-01-15T02:38:44;97714.22;;;-7.57;96.14
61906;BME280;47863;55.766;37.672;2024-01-15T02:41:10;97720.78;;;-7.51;96.33
61906;BME280;47863;55.766;37.672;2024-01-15T02:43:35;97720.47;;;-7.47;95.95
61906;BME280;47863;55.766;37.672;2024-01-15T02:46:20;97682.38;;;-7.61;96.24
61906;BME280;47863;55.766;37.672;2024-01-15T02:49:03;97719.91;;;-7.38;96.66
61906;BME280;47863;55.766;37.672;2024-01-15T02:51:29;97718.94;;;-7.37;96.80
61906;BME280;47863;55.766;37.672;2024-01-15T02:56:57;97705.66;;;-7.32;96.63
61906;BME280;47863;55.766;37.672;2024-01-15T02:59:23;97708.78;;;-7.27;96.70
61906;BME280;47863;55.766;37.672;2024-01-15T03:01:48;97702.00;;;-7.29;96.68
61906;BME280;47863;55.766;37.672;2024-01-15T03:04:14;97699.84;;;-7.23;96.30
61906;BME280;47863;55.766;37.672;2024-01-15T03:06:40;97693.91;;;-7.25;96.43
61906;BME280;47863;55.766;37.672;2024-01-15T03:09:05;97702.78;;;-7.14;97.18
61906;BME280;47863;55.766;37.672;2024-01-15T03:11:39;97706.00;;;-7.11;97.28
61906;BME280;47863;55.766;37.672;2024-01-15T03:17:08;97701.31;;;-7.06;97.28
61906;BME280;47863;55.766;37.672;2024-01-15T03:19:35;97696.03;;;-7.04;97.16
61906;BME280;47863;55.766;37.672;2024-01-15T03:22:19;97688.94;;;-7.02;97.30
61906;BME280;47863;55.766;37.672;2024-01-15T03:24:45;97688.63;;;-6.98;97.41
61906;BME280;47863;55.766;37.672;2024-01-15T03:27:11;97680.00;;;-6.98;97.28
61906;BME280;47863;55.766;37.672;2024-01-15T03:29:36;97688.13;;;-6.90;97.53
61906;BME280;47863;55.766;37.672;2024-01-15T03:32:02;97643.97;;;-7.17;97.51
61906;BME280;47863;55.766;37.672;2024-01-15T03:34:28;97686.16;;;-6.86;97.80
61906;BME280;47863;55.766;37.672;2024-01-15T03:36:53;97683.22;;;-6.82;97.71
61906;BME280;47863;55.766;37.672;2024-01-15T03:39:19;97677.91;;;-6.80;98.24
61906;BME280;47863;55.766;37.672;2024-01-15T03:42:03;97651.03;;;-6.93;98.00
61906;BME280;47863;55.766;37.672;2024-01-15T03:44:29;97673.44;;;-6.78;97.97
61906;BME280;47863;55.766;37.672;2024-01-15T03:46:54;97656.25;;;-6.81;97.83
61906;BME280;47863;55.766;37.672;2024-01-15T03:49:20;97658.53;;;-6.76;98.30
61906;BME280;47863;55.766;37.672;2024-01-15T03:51:46;97665.94;;;-6.70;98.08
61906;BME280;47863;55.766;37.672;2024-01-15T03:54:11;97640.53;;;-6.79;97.93
61906;BME280;47863;55.766;37.672;2024-01-15T03:56:37;97674.16;;;-6.63;98.13
61906;BME280;47863;55.766;37.672;2024-01-15T03:59:03;97672.06;;;-6.58;98.20
61906;BME280;47863;55.766;37.672;2024-01-15T04:01:28;97671.97;;;-6.56;98.43
61906;BME280;47863;55.766;37.672;2024-01-15T04:03:55;97664.47;;;-6.61;98.39
61906;BME280;47863;55.766;37.672;2024-01-15T04:06:20;97667.78;;;-6.46;98.45
61906;BME280;47863;55.766;37.672;2024-01-15T04:08:46;97651.22;;;-6.58;98.22
61906;BME280;47863;55.766;37.672;2024-01-15T04:11:11;97669.31;;;-6.44;98.47
61906;BME280;47863;55.766;37.672;2024-01-15T04:13:37;97665.78;;;-6.43;97.74
61906;BME280;47863;55.766;37.672;2024-01-15T04:16:03;97668.31;;;-6.41;97.99
61906;BME280;47863;55.766;37.672;2024-01-15T04:18:28;97597.84;;;-6.76;97.91
61906;BME280;47863;55.766;37.672;2024-01-15T04:20:54;97667.88;;;-6.35;97.69
61906;BME280;47863;55.766;37.672;2024-01-15T04:23:20;97665.03;;;-6.32;98.48
61906;BME280;47863;55.766;37.672;2024-01-15T04:25:45;97663.19;;;-6.30;98.13
61906;BME280;47863;55.766;37.672;2024-01-15T04:28:11;97663.03;;;-6.28;98.18
61906;BME280;47863;55.766;37.672;2024-01-15T04:30:37;97637.97;;;-6.42;98.04
61906;BME280;47863;55.766;37.672;2024-01-15T04:33:21;97644.41;;;-6.35;98.32
61906;BME280;47863;55.766;37.672;2024-01-15T04:36:06;97661.69;;;-6.21;97.93
61906;BME280;47863;55.766;37.672;2024-01-15T04:38:32;97651.88;;;-6.18;98.03
61906;BME280;47863;55.766;37.672;2024-01-15T04:43:42;97656.38;;;-6.20;98.33
61906;BME280;47863;55.766;37.672;2024-01-15T04:46:08;97656.66;;;-6.11;98.17
61906;BME280;47863;55.766;37.672;2024-01-15T04:48:34;97658.63;;;-6.15;98.37
61906;BME280;47863;55.766;37.672;2024-01-15T04:51:00;97660.91;;;-6.10;98.70
61906;BME280;47863;55.766;37.672;2024-01-15T04:53:26;97653.94;;;-6.10;98.48
61906;BME280;47863;55.766;37.672;2024-01-15T04:55:51;97629.81;;;-6.25;98.78
61906;BME280;47863;55.766;37.672;2024-01-15T04:58:17;97636.72;;;-6.12;99.01
61906;BME280;47863;55.766;37.672;2024-01-15T05:00:43;97650.91;;;-6.04;98.48
61906;BME280;47863;55.766;37.672;2024-01-15T05:03:08;97646.63;;;-6.05;99.00
61906;BME280;47863;55.766;37.672;2024-01-15T05:05:34;97623.31;;;-6.19;98.84
61906;BME280;47863;55.766;37.672;2024-01-15T05:10:43;97648.69;;;-5.97;98.42
61906;BME280;47863;55.766;37.672;2024-01-15T05:13:09;97664.22;;;-5.95;98.90
61906;BME280;47863;55.766;37.672;2024-01-15T05:15:34;97639.94;;;-5.96;98.56
61906;BME280;47863;55.766;37.672;2024-01-15T05:18:00;97645.38;;;-5.88;98.65
61906;BME280;47863;55.766;37.672;2024-01-15T05:20:26;97652.84;;;-5.83;98.50
61906;BME280;47863;55.766;37.672;2024-01-15T05:23:10;97643.16;;;-5.81;98.71
61906;BME280;47863;55.766;37.672;2024-01-15T05:25:36;97643.25;;;-5.83;98.55
61906;BME280;47863;55.766;37.672;2024-01-15T05:28:01;97645.16;;;-5.85;99.09
61906;BME280;47863;55.766;37.672;2024-01-15T05:30:27;97610.75;;;-6.01;98.65
61906;BME280;47863;55.766;37.672;2024-01-15T05:35:38;97650.22;;;-5.70;99.03
61906;BME280;47863;55.766;37.672;2024-01-15T05:38:03;97636.88;;;-5.79;99.13
61906;BME280;47863;55.766;37.672;2024-01-15T05:40:29;97640.34;;;-5.78;99.08
61906;BME280;47863;55.766;37.672;2024-01-15T05:42:54;97647.34;;;-5.67;99.36
61906;BME280;47863;55.766;37.672;2024-01-15T05:45:20;97649.97;;;-5.67;99.27
61906;BME280;47863;55.766;37.672;2024-01-15T05:47:45;97643.69;;;-5.65;99.30
61906;BME280;47863;55.766;37.672;2024-01-15T05:50:29;97644.09;;;-5.58;99.75
61906;BME280;47863;55.766;37.672;2024-01-15T05:52:55;97616.75;;;-5.76;99.62
61906;BME280;47863;55.766;37.672;2024-01-15T05:58:04;97648.13;;;-5.54;99.41
61906;BME280;47863;55.766;37.672;2024-01-15T06:00:30;97640.31;;;-5.54;99.40
61906;BME280;47863;55.766;37.672;2024-01-15T06:02:58;97642.34;;;-5.46;99.35
61906;BME280;47863;55.766;37.672;2024-01-15T06:05:24;97642.97;;;-5.43;99.49
61906;BME280;47863;55.766;37.672;2024-01-15T06:10:34;97649.84;;;-5.42;99.60
61906;BME280;47863;55.766;37.672;2024-01-15T06:13:00;97635.13;;;-5.43;99.75
61906;BME280;47863;55.766;37.672;2024-01-15T06:15:25;97626.69;;;-5.46;99.63
61906;BME280;47863;55.766;37.672;2024-01-15T06:17:51;97640.38;;;-5.31;99.89
61906;BME280;47863;55.766;37.672;2024-01-15T06:20:16;97582.88;;;-5.65;100.00
61906;BME280;47863;55.766;37.672;2024-01-15T06:22:42;97644.69;;;-5.19;100.00
61906;BME280;47863;55.766;37.672;2024-01-15T06:25:08;97645.88;;;-5.23;100.00
61906;BME280;47863;55.766;37.672;2024-01-15T06:30:37;97643.63;;;-5.16;100.00
61906;BME280;47863;55.766;37.672;2024-01-15T06:33:04;97635.44;;;-5.23;100.00
61906;BME280;47863;55.766;37.672;2024-01-15T06:35:30;97608.34;;;-5.33;100.00
61906;BME280;47863;55.766;37.672;2024-01-15T06:38:14;97648.28;;;-5.09;100.00
61906;BME280;47863;55.766;37.672;2024-01-15T06:40:39;97642.34;;;-5.11;100.00
61906;BME280;47863;55.766;37.672;2024-01-15T06:43:11;97602.78;;;-5.29;100.00
61906;BME280;47863;55.766;37.672;2024-01-15T06:45:36;97645.88;;;-5.12;100.00
61906;BME280;47863;55.766;37.672;2024-01-15T06:48:03;97652.06;;;-5.02;100.00
61906;BME280;47863;55.766;37.672;2024-01-15T06:50:28;97616.34;;;-5.12;100.00
61906;BME280;47863;55.766;37.672;2024-01-15T06:55:39;97633.34;;;-4.95;100.00
61906;BME280;47863;55.766;37.672;2024-01-15T06:58:05;97648.78;;;-4.81;100.00
61906;BME280;47863;55.766;37.672;2024-01-15T07:00:30;97648.53;;;-4.78;100.00
61906;BME280;47863;55.766;37.672;2024-01-15T07:02:56;97653.53;;;-4.75;100.00
61906;BME280;47863;55.766;37.672;2024-01-15T07:05:23;97649.03;;;-4.73;100.00
61906;BME280;47863;55.766;37.672;2024-01-15T07:08:08;97654.47;;;-4.65;100.00
61906;BME280;47863;55.766;37.672;2024-01-15T07:10:33;97646.28;;;-4.60;100.00
61906;BME280;47863;55.766;37.672;2024-01-15T07:15:43;97655.69;;;-4.57;100.00
61906;BME280;47863;55.766;37.672;2024-01-15T07:18:09;97636.09;;;-4.63;100.00
61906;BME280;47863;55.766;37.672;2024-01-15T07:20:37;97651.03;;;-4.43;100.00
61906;BME280;47863;55.766;37.672;2024-01-15T07:23:02;97635.84;;;-4.49;100.00
61906;BME280;47863;55.766;37.672;2024-01-15T07:25:29;97658.75;;;-4.30;100.00
61906;BME280;47863;55.766;37.672;2024-01-15T07:27:55;97634.03;;;-4.37;100.00
61906;BME280;47863;55.766;37.672;2024-01-15T07:30:21;97642.72;;;-4.36;100.00
61906;BME280;47863;55.766;37.672;2024-01-15T07:32:47;97650.66;;;-4.27;100.00
61906;BME280;47863;55.766;37.672;2024-01-15T07:35:14;97646.50;;;-4.18;100.00
61906;BME280;47863;55.766;37.672;2024-01-15T07:37:41;97626.44;;;-4.29;100.00
61906;BME280;47863;55.766;37.672;2024-01-15T07:40:07;97647.81;;;-4.12;100.00
61906;BME280;47863;55.766;37.672;2024-01-15T07:42:51;97625.81;;;-4.21;100.00
61906;BME280;47863;55.766;37.672;2024-01-15T07:45:17;97638.06;;;-4.10;100.00
61906;BME280;47863;55.766;37.672;2024-01-15T07:47:43;97616.66;;;-4.15;100.00
61906;BME280;47863;55.766;37.672;2024-01-15T07:50:10;97641.59;;;-4.00;100.00
61906;BME280;47863;55.766;37.672;2024-01-15T07:52:54;97639.94;;;-4.01;100.00
61906;BME280;47863;55.766;37.672;2024-01-15T07:55:20;97638.03;;;-3.99;100.00
61906;BME280;47863;55.766;37.672;2024-01-15T07:58:04;97628.19;;;-4.07;100.00
61906;BME280;47863;55.766;37.672;2024-01-15T08:00:30;97619.63;;;-4.09;100.00
61906;BME280;47863;55.766;37.672;2024-01-15T08:02:55;97598.00;;;-4.11;100.00
61906;BME280;47863;55.766;37.672;2024-01-15T08:05:39;97625.88;;;-3.89;100.00
61906;BME280;47863;55.766;37.672;2024-01-15T08:08:05;97645.22;;;-3.80;100.00
61906;BME280;47863;55.766;37.672;2024-01-15T08:10:31;97642.50;;;-3.79;100.00
61906;BME280;47863;55.766;37.672;2024-01-15T08:13:15;97638.41;;;-3.71;100.00
61906;BME280;47863;55.766;37.672;2024-01-15T08:15:44;97635.56;;;-3.68;100.00
61906;BME280;47863;55.766;37.672;2024-01-15T08:18:10;97619.16;;;-3.70;100.00
61906;BME280;47863;55.766;37.672;2024-01-15T08:20:35;97638.06;;;-3.46;100.00
61906;BME280;47863;55.766;37.672;2024-01-15T08:23:01;97633.19;;;-3.39;100.00
61906;BME280;47863;55.766;37.672;2024-01-15T08:25:26;97631.16;;;-3.35;100.00
61906;BME280;47863;55.766;37.672;2024-01-15T08:27:52;97639.19;;;-3.27;100.00
61906;BME280;47863;55.766;37.672;2024-01-15T08:30:18;97635.25;;;-3.22;100.00
61906;BME280;47863;55.766;37.672;2024-01-15T08:32:45;97636.94;;;-3.32;100.00
61906;BME280;47863;55.766;37.672;2024-01-15T08:35:11;97643.22;;;-3.23;100.00
61906;BME280;47863;55.766;37.672;2024-01-15T08:37:38;97643.81;;;-3.20;100.00
61906;BME280;47863;55.766;37.672;2024-01-15T08:40:04;97644.50;;;-3.17;100.00
61906;BME280;47863;55.766;37.672;2024-01-15T08:42:48;97637.97;;;-3.23;100.00
61906;BME280;47863;55.766;37.672;2024-01-15T08:45:14;97644.34;;;-3.16;100.00
61906;BME280;47863;55.766;37.672;2024-01-15T08:47:40;97642.19;;;-3.11;100.00
61906;BME280;47863;55.766;37.672;2024-01-15T08:50:06;97649.03;;;-2.99;100.00
61906;BME280;47863;55.766;37.672;2024-01-15T08:52:36;97640.00;;;-2.85;100.00
61906;BME280;47863;55.766;37.672;2024-01-15T08:55:02;97638.94;;;-2.82;100.00
61906;BME280;47863;55.766;37.672;2024-01-15T08:57:29;97621.72;;;-2.75;100.00
61906;BME280;47863;55.766;37.672;2024-01-15T09:00:14;97624.41;;;-2.55;100.00
61906;BME280;47863;55.766;37.672;2024-01-15T09:02:40;97630.28;;;-2.42;100.00
61906;BME280;47863;55.766;37.672;2024-01-15T09:08:46;97640.88;;;-2.44;100.00
61906;BME280;47863;55.766;37.672;2024-01-15T09:11:11;97644.84;;;-2.49;100.00
61906;BME280;47863;55.766;37.672;2024-01-15T09:13:56;97641.38;;;-2.60;100.00
61906;BME280;47863;55.766;37.672;2024-01-15T09:16:21;97612.03;;;-2.84;100.00
61906;BME280;47863;55.766;37.672;2024-01-15T09:18:47;97631.28;;;-2.64;100.00
61906;BME280;47863;55.766;37.672;2024-01-15T09:21:13;97593.94;;;-2.87;100.00
61906;BME280;47863;55.766;37.672;2024-01-15T09:23:38;97630.72;;;-2.68;100.00
61906;BME280;47863;55.766;37.672;2024-01-15T09:26:04;97631.94;;;-2.72;100.00
61906;BME280;47863;55.766;37.672;2024-01-15T09:28:29;97614.78;;;-2.86;100.00
61906;BME280;47863;55.766;37.672;2024-01-15T09:31:13;97629.97;;;-2.80;100.00
61906;BME280;47863;55.766;37.672;2024-01-15T09:33:39;97609.66;;;-2.87;100.00
61906;BME280;47863;55.766;37.672;2024-01-15T09:36:23;97624.22;;;-2.73;100.00
61906;BME280;47863;55.766;37.672;2024-01-15T09:44:22;97628.09;;;-2.68;100.00
61906;BME280;47863;55.766;37.672;2024-01-15T09:46:47;97616.78;;;-2.68;100.00
61906;BME280;47863;55.766;37.672;2024-01-15T09:49:19;97636.31;;;-2.51;100.00
61906;BME280;47863;55.766;37.672;2024-01-15T09:51:45;97630.81;;;-2.48;100.00
61906;BME280;47863;55.766;37.672;2024-01-15T09:54:29;97639.81;;;-2.31;100.00
61906;BME280;47863;55.766;37.672;2024-01-15T09:57:13;97631.13;;;-2.32;100.00
61906;BME280;47863;55.766;37.672;2024-01-15T09:59:40;97624.06;;;-2.41;100.00
61906;BME280;47863;55.766;37.672;2024-01-15T10:02:08;97635.16;;;-2.28;100.00
61906;BME280;47863;55.766;37.672;2024-01-15T10:04:38;97631.25;;;-2.33;100.00
61906;BME280;47863;55.766;37.672;2024-01-15T10:07:05;97629.03;;;-2.38;100.00
61906;BME280;47863;55.766;37.672;2024-01-15T10:09:31;97643.84;;;-2.27;100.00
61906;BME280;47863;55.766;37.672;2024-01-15T10:11:57;97615.91;;;-2.48;100.00
61906;BME280;47863;55.766;37.672;2024-01-15T10:14:23;97612.63;;;-2.40;100.00
61906;BME280;47863;55.766;37.672;2024-01-15T10:16:48;97621.63;;;-2.33;100.00
61906;BME280;47863;55.766;37.672;2024-01-15T10:19:14;97638.59;;;-2.27;100.00
61906;BME280;47863;55.766;37.672;2024-01-15T10:21:40;97639.28;;;-2.25;100.00
61906;BME280;47863;55.766;37.672;2024-01-15T10:24:05;97630.88;;;-2.29;100.00
61906;BME280;47863;55.766;37.672;2024-01-15T10:26:32;97608.16;;;-2.49;100.00
61906;BME280;47863;55.766;37.672;2024-01-15T10:28:58;97632.13;;;-2.33;100.00
61906;BME280;47863;55.766;37.672;2024-01-15T10:31:27;97641.75;;;-2.33;100.00
61906;BME280;47863;55.766;37.672;2024-01-15T10:34:30;97648.13;;;-2.26;100.00
61906;BME280;47863;55.766;37.672;2024-01-15T10:36:56;97631.00;;;-2.30;100.00
61906;BME280;47863;55.766;37.672;2024-01-15T10:39:23;97630.19;;;-2.31;100.00
61906;BME280;47863;55.766;37.672;2024-01-15T10:41:49;97633.22;;;-2.26;100.00
61906;BME280;47863;55.766;37.672;2024-01-15T10:44:16;97628.94;;;-2.27;100.00
61906;BME280;47863;55.766;37.672;2024-01-15T10:46:43;97609.72;;;-2.37;100.00
61906;BME280;47863;55.766;37.672;2024-01-15T10:49:09;97629.25;;;-2.20;100.00
61906;BME280;47863;55.766;37.672;2024-01-15T10:51:36;97580.19;;;-2.49;100.00
61906;BME280;47863;55.766;37.672;2024-01-15T10:54:20;97628.13;;;-2.17;100.00
61906;BME280;47863;55.766;37.672;2024-01-15T10:56:47;97624.69;;;-2.18;100.00
61906;BME280;47863;55.766;37.672;2024-01-15T10:59:13;97615.56;;;-2.24;100.00
61906;BME280;47863;55.766;37.672;2024-01-15T11:01:39;97621.94;;;-2.16;100.00
61906;BME280;47863;55.766;37.672;2024-01-15T11:04:05;97626.91;;;-2.13;100.00
61906;BME280;47863;55.766;37.672;2024-01-15T11:06:42;97602.03;;;-2.29;100.00
61906;BME280;47863;55.766;37.672;2024-01-15T11:09:07;97635.63;;;-2.13;100.00
61906;BME280;47863;55.766;37.672;2024-01-15T11:11:40;97637.53;;;-2.15;100.00
61906;BME280;47863;55.766;37.672;2024-01-15T11:14:06;97639.31;;;-2.15;100.00
61906;BME280;47863;55.766;37.672;2024-01-15T11:17:01;97637.69;;;-2.16;100.00
61906;BME280;47863;55.766;37.672;2024-01-15T11:19:44;97634.03;;;-2.25;100.00
61906;BME280;47863;55.766;37.672;2024-01-15T11:25:12;97621.13;;;-2.17;100.00
61906;BME280;47863;55.766;37.672;2024-01-15T11:27:46;97617.81;;;-2.19;100.00
61906;BME280;47863;55.766;37.672;2024-01-15T11:30:14;97624.69;;;-2.18;100.00
61906;BME280;47863;55.766;37.672;2024-01-15T11:32:58;97616.41;;;-2.13;100.00
61906;BME280;47863;55.766;37.672;2024-01-15T11:35:49;97613.25;;;-2.17;100.00
61906;BME280;47863;55.766;37.672;2024-01-15T11:38:36;97611.84;;;-2.11;100.00
61906;BME280;47863;55.766;37.672;2024-01-15T11:41:13;97614.75;;;-2.14;100.00
61906;BME280;47863;55.766;37.672;2024-01-15T11:43:40;97611.03;;;-2.12;100.00
61906;BME280;47863;55.766;37.672;2024-01-15T11:49:02;97582.69;;;-2.28;100.00
61906;BME280;47863;55.766;37.672;2024-01-15T11:51:29;97617.50;;;-2.16;100.00
61906;BME280;47863;55.766;37.672;2024-01-15T11:53:58;97617.38;;;-2.14;100.00
61906;BME280;47863;55.766;37.672;2024-01-15T11:56:28;97612.97;;;-2.14;100.00
61906;BME280;47863;55.766;37.672;2024-01-15T11:58:56;97611.16;;;-2.23;100.00
61906;BME280;47863;55.766;37.672;2024-01-15T12:01:22;97620.97;;;-2.15;100.00
61906;BME280;47863;55.766;37.672;2024-01-15T12:03:47;97622.34;;;-2.11;100.00
61906;BME280;47863;55.766;37.672;2024-01-15T12:06:14;97625.25;;;-2.14;100.00
61906;BME280;47863;55.766;37.672;2024-01-15T12:08:39;97628.69;;;-2.14;100.00
61906;BME280;47863;55.766;37.672;2024-01-15T12:11:12;97620.81;;;-2.24;100.00
61906;BME280;47863;55.766;37.672;2024-01-15T12:16:43;97623.03;;;-2.19;100.00
61906;BME280;47863;55.766;37.672;2024-01-15T12:19:09;97603.66;;;-2.37;100.00
61906;BME280;47863;55.766;37.672;2024-01-15T12:21:54;97629.38;;;-2.22;100.00
61906;BME280;47863;55.766;37.672;2024-01-15T12:24:20;97625.22;;;-2.24;100.00
61906;BME280;47863;55.766;37.672;2024-01-15T12:26:45;97609.03;;;-2.29;100.00
61906;BME280;47863;55.766;37.672;2024-01-15T12:29:11;97630.88;;;-2.29;100.00
61906;BME280;47863;55.766;37.672;2024-01-15T12:34:22;97626.34;;;-2.27;100.00
61906;BME280;47863;55.766;37.672;2024-01-15T12:36:47;97619.16;;;-2.25;100.00
61906;BME280;47863;55.766;37.672;2024-01-15T12:39:13;97594.25;;;-2.40;100.00
61906;BME280;47863;55.766;37.672;2024-01-15T12:41:39;97608.91;;;-2.28;100.00
61906;BME280;47863;55.766;37.672;2024-01-15T12:44:05;97555.84;;;-2.61;100.00
61906;BME280;47863;55.766;37.672;2024-01-15T12:49:14;97613.75;;;-2.33;100.00
61906;BME280;47863;55.766;37.672;2024-01-15T12:51:40;97617.50;;;-2.26;100.00
61906;BME280;47863;55.766;37.672;2024-01-15T12:54:06;97598.03;;;-2.33;100.00
61906;BME280;47863;55.766;37.672;2024-01-15T12:56:32;97608.66;;;-2.25;100.00
61906;BME280;47863;55.766;37.672;2024-01-15T12:58:57;97590.25;;;-2.44;100.00
61906;BME280;47863;55.766;37.672;2024-01-15T13:01:23;97629.38;;;-2.22;100.00
61906;BME280;47863;55.766;37.672;2024-01-15T13:04:07;97607.81;;;-2.25;100.00
61906;BME280;47863;55.766;37.672;2024-01-15T13:06:36;97627.72;;;-2.23;100.00
61906;BME280;47863;55.766;37.672;2024-01-15T13:09:20;97629.66;;;-2.25;100.00
61906;BME280;47863;55.766;37.672;2024-01-15T13:14:31;97592.75;;;-2.43;100.00
61906;BME280;47863;55.766;37.672;2024-01-15T13:16:58;97637.22;;;-2.22;100.00
61906;BME280;47863;55.766;37.672;2024-01-15T13:19:24;97631.03;;;-2.21;100.00
61906;BME280;47863;55.766;37.672;2024-01-15T13:24:35;97600.78;;;-2.34;100.00
61906;BME280;47863;55.766;37.672;2024-01-15T13:27:02;97639.28;;;-2.25;100.00
61906;BME280;47863;55.766;37.672;2024-01-15T13:29:29;97633.50;;;-2.29;100.00
61906;BME280;47863;55.766;37.672;2024-01-15T13:31:55;97637.38;;;-2.23;100.00
61906;BME280;47863;55.766;37.672;2024-01-15T13:34:21;97631.84;;;-2.30;100.00
61906;BME280;47863;55.766;37.672;2024-01-15T13:36:47;97638.22;;;-2.23;100.00
61906;BME280;47863;55.766;37.672;2024-01-15T13:41:59;97630.34;;;-2.23;100.00
61906;BME280;47863;55.766;37.672;2024-01-15T13:44:25;97642.47;;;-2.22;100.00
61906;BME280;47863;55.766;37.672;2024-01-15T13:46:50;97648.81;;;-2.24;100.00
61906;BME280;47863;55.766;37.672;2024-01-15T13:49:17;97645.25;;;-2.23;100.00
61906;BME280;47863;55.766;37.672;2024-01-15T13:51:43;97644.41;;;-2.24;100.00
61906;BME280;47863;55.766;37.672;2024-01-15T13:57:11;97643.47;;;-2.23;100.00
61906;BME280;47863;55.766;37.672;2024-01-15T13:59:37;97641.78;;;-2.24;100.00
61906;BME280;47863;55.766;37.672;2024-01-15T14:02:03;97600.41;;;-2.51;100.00